Torm Camilla — OYZZ2 — position and weather

sailwx.info

Track history (hours):
 
Tides and Currents Weather Stations Pressure Air Temp Water Temp Dewpoint Dewpoint Depression Visibility Wind Speed Wind Dir Waves Ship Positions

Torm Camilla

Last reported at 2018-Jan-12 14:57 UTC. Time now 2018-Jan-19 13:38 UTC.
Position N 36°10' W 005°24'.

Length 182 m; draft 10.8 m.

Type: Tanker. MMSI: 220402000.

Date/timePositionNaut miles runAvg speedWind from/ knotsBaromVisibWave heightAir tempDewpointWater temp
2018-Jan-12 14:57N 36°10' W 005°24'0 0.0
2018-Jan-12 14:24N 36°10' W 005°24'0 0.2
2018-Jan-12 14:00N 36°10' W 005°24'0 0.3
2018-Jan-12 13:30N 36°10' W 005°24'0 0.1
2018-Jan-12 13:00N 36°10' W 005°24'0 0.0
2018-Jan-12 12:30N 36°10' W 005°24'0 0.0
2018-Jan-12 12:00N 36°10' W 005°24'0 0.1
2018-Jan-12 11:30N 36°10' W 005°24'0 0.0
2018-Jan-12 11:00N 36°10' W 005°24'0 0.1
2018-Jan-12 10:30N 36°10' W 005°24'0 0.1
2018-Jan-12 09:55N 36°10' W 005°24'1 2.8
2018-Jan-12 09:30N 36°09' W 005°24'3 5.5
2018-Jan-12 09:01N 36°07' W 005°23'3 6.2
2018-Jan-12 08:31N 36°04' W 005°21'4 7.9
2018-Jan-12 08:01N 36°05' W 005°16'3 6.6
2018-Jan-12 07:30N 36°05' W 005°12'3 5.3
2018-Jan-12 07:00N 36°06' W 005°09'5 9.8
2018-Jan-12 06:30N 36°06' W 005°02'510.2
2018-Jan-12 06:00N 36°07' W 004°56'611.0
2018-Jan-12 05:29N 36°08' W 004°49'611.2
2018-Jan-12 04:56N 36°09' W 004°42'512.0
2018-Jan-12 04:30N 36°09' W 004°35'18111.6
2018-Jan-11 12:55N 37°13' W 001°04'512.2
2018-Jan-11 12:30N 37°16' W 000°59'612.1
2018-Jan-11 12:00N 37°21' W 000°54'611.9
2018-Jan-11 11:31N 37°24' W 000°48'611.9
2018-Jan-11 11:00N 37°28' W 000°42'611.8
2018-Jan-11 10:30N 37°32' W 000°37'611.8
2018-Jan-11 10:00N 37°37' W 000°32'611.7
2018-Jan-11 09:30N 37°42' W 000°28'611.7
2018-Jan-11 08:57N 37°47' W 000°24'511.8
2018-Jan-11 08:30N 37°51' W 000°20'611.5
2018-Jan-11 08:00N 37°56' W 000°16'  
2018-Jan-06 12:57N 40°49' E 001°49'612.9
2018-Jan-06 12:28N 40°53' E 001°54'612.6
2018-Jan-06 12:00N 40°57' E 002°00'612.2
2018-Jan-06 11:30N 41°01' E 002°07'16812.1
2018-Jan-05 21:33N 42°59' E 004°47'111.8
2018-Jan-05 21:30N 42°60' E 004°47'611.8
2018-Jan-05 21:00N 43°04' E 004°52'611.8
2018-Jan-05 20:30N 43°09' E 004°57'510.5
2018-Jan-05 20:00N 43°14' E 005°00'510.3
2018-Jan-05 19:30N 43°19' E 004°59'4 7.1
2018-Jan-05 19:00N 43°22' E 004°58'1 2.4
2018-Jan-05 18:30N 43°23' E 004°56'0 0.0
2018-Jan-05 18:00N 43°23' E 004°56'0 0.1
2018-Jan-05 17:30N 43°23' E 004°56'0 0.0
2018-Jan-05 17:00N 43°23' E 004°56'0 0.0
2018-Jan-05 16:30N 43°23' E 004°56'0 0.0
2018-Jan-05 16:00N 43°23' E 004°56'0 0.0
2018-Jan-05 15:30N 43°23' E 004°56'0 0.1
2018-Jan-05 15:00N 43°23' E 004°56'0 0.1
2018-Jan-05 14:30N 43°23' E 004°56'0 0.0
2018-Jan-05 14:00N 43°23' E 004°56'0 0.0
2018-Jan-05 13:30N 43°23' E 004°56'0 0.0
2018-Jan-05 13:00N 43°23' E 004°56'0 0.0
2018-Jan-05 12:30N 43°23' E 004°56'0 0.0
2018-Jan-05 12:00N 43°23' E 004°56'0 0.0
2018-Jan-05 11:30N 43°23' E 004°56'0 0.0
2018-Jan-05 11:00N 43°23' E 004°56'0 0.1
2018-Jan-05 10:30N 43°23' E 004°56'0 0.0
2018-Jan-05 10:00N 43°23' E 004°56'0 0.0
2018-Jan-05 09:30N 43°23' E 004°56'0 0.0
2018-Jan-05 09:00N 43°23' E 004°56'0 0.1
2018-Jan-05 08:30N 43°23' E 004°56'0 0.0
2018-Jan-05 08:00N 43°23' E 004°56'0 0.1
2018-Jan-05 07:30N 43°23' E 004°56'0 0.0
2018-Jan-05 07:00N 43°23' E 004°56'0 0.0
2018-Jan-05 06:30N 43°23' E 004°56'0 0.1
2018-Jan-05 06:00N 43°23' E 004°56'0 0.1
2018-Jan-05 05:30N 43°23' E 004°57'0 0.1
2018-Jan-05 05:00N 43°23' E 004°57'0 0.0
2018-Jan-05 04:30N 43°23' E 004°57'0 0.0
2018-Jan-05 04:00N 43°23' E 004°57'0 0.0
2018-Jan-05 03:30N 43°23' E 004°57'0 0.1
2018-Jan-05 03:00N 43°23' E 004°57'0 0.1
2018-Jan-05 02:30N 43°23' E 004°57'0 0.2
2018-Jan-05 02:00N 43°23' E 004°57'0 0.0
2018-Jan-05 01:30N 43°23' E 004°57'0 0.0
2018-Jan-05 01:00N 43°23' E 004°57'0 0.0
2018-Jan-05 00:30N 43°23' E 004°57'0 0.1
2018-Jan-05 00:00N 43°23' E 004°57'0 0.0
2018-Jan-04 23:30N 43°23' E 004°57'0 0.0
2018-Jan-04 23:00N 43°23' E 004°57'0 0.0
2018-Jan-04 22:30N 43°23' E 004°57'0 0.0
2018-Jan-04 22:00N 43°23' E 004°57'0 0.0
2018-Jan-04 21:30N 43°23' E 004°57'0 0.1
2018-Jan-04 21:00N 43°23' E 004°57'0 0.1
2018-Jan-04 20:27N 43°23' E 004°57'0 0.1
2018-Jan-04 20:00N 43°23' E 004°57'0 0.0
2018-Jan-04 19:30N 43°23' E 004°57'0 0.0
2018-Jan-04 19:00N 43°23' E 004°57'0 0.1
2018-Jan-04 18:30N 43°23' E 004°57'0 0.0
2018-Jan-04 18:00N 43°23' E 004°57'0 0.0
2018-Jan-04 17:30N 43°23' E 004°57'0 0.1
2018-Jan-04 17:00N 43°23' E 004°57'0 0.0
2018-Jan-04 16:30N 43°23' E 004°57'0 0.0
2018-Jan-04 16:00N 43°23' E 004°57'0 0.0
2018-Jan-04 15:30N 43°23' E 004°57'0 0.0
2018-Jan-04 15:00N 43°23' E 004°57'0 0.0
2018-Jan-04 14:30N 43°23' E 004°57'0 0.1
2018-Jan-04 14:00N 43°23' E 004°57'0 0.0
2018-Jan-04 13:30N 43°23' E 004°57'0 0.0
2018-Jan-04 13:00N 43°23' E 004°57'0 0.0
2018-Jan-04 12:30N 43°23' E 004°57'0 0.0
2018-Jan-04 12:00N 43°23' E 004°57'0 0.1
2018-Jan-04 11:30N 43°23' E 004°57'0 0.0
2018-Jan-04 11:00N 43°23' E 004°57'0 0.0
2018-Jan-04 10:30N 43°23' E 004°57'0 0.0
2018-Jan-04 09:57N 43°23' E 004°57'0 0.1
2018-Jan-04 09:30N 43°23' E 004°57'0 0.0
2018-Jan-04 09:00N 43°23' E 004°57'0 0.0
2018-Jan-04 08:30N 43°23' E 004°57'0 0.0
2018-Jan-04 08:00N 43°23' E 004°57'0 0.0
2018-Jan-04 07:30N 43°23' E 004°57'0 0.0
2018-Jan-04 07:00N 43°23' E 004°57'0 0.0
2018-Jan-04 06:30N 43°23' E 004°57'0 0.0
2018-Jan-04 06:00N 43°23' E 004°57'0 0.0
2018-Jan-04 05:30N 43°23' E 004°57'0 0.0
2018-Jan-04 05:00N 43°23' E 004°57'0 0.0
2018-Jan-04 04:30N 43°23' E 004°57'0 0.1
2018-Jan-04 04:00N 43°23' E 004°57'0 0.1
2018-Jan-04 03:30N 43°23' E 004°57'0 0.1
2018-Jan-04 03:00N 43°23' E 004°57'0 0.0
2018-Jan-04 02:30N 43°23' E 004°57'0 0.1
2018-Jan-04 02:00N 43°23' E 004°57'0 0.1
2018-Jan-04 01:30N 43°23' E 004°57'0 0.0
2018-Jan-04 01:00N 43°23' E 004°57'0 0.0
2018-Jan-04 00:30N 43°23' E 004°57'0 0.0
2018-Jan-04 00:00N 43°23' E 004°57'0 0.0
2018-Jan-03 23:30N 43°23' E 004°57'0 0.0
2018-Jan-03 23:00N 43°23' E 004°57'0 0.0
2018-Jan-03 22:30N 43°23' E 004°57'0 0.1
2018-Jan-03 22:00N 43°23' E 004°57'0 0.0
2018-Jan-03 21:30N 43°23' E 004°57'0 0.1
2018-Jan-03 21:00N 43°23' E 004°57'0 0.1
2018-Jan-03 20:30N 43°22' E 004°57'0 0.1
2018-Jan-03 20:00N 43°23' E 004°57'0 0.0
2018-Jan-03 19:30N 43°22' E 004°57'0 0.0
2018-Jan-03 19:00N 43°22' E 004°57'0 0.0
2018-Jan-03 18:30N 43°23' E 004°57'0 0.0
2018-Jan-03 18:00N 43°23' E 004°57'0 0.0
2018-Jan-03 17:30N 43°23' E 004°57'0 0.0
2018-Jan-03 17:00N 43°23' E 004°57'0 0.0
2018-Jan-03 16:30N 43°23' E 004°57'0 0.0
2018-Jan-03 16:00N 43°23' E 004°57'0 0.1
2018-Jan-03 15:30N 43°23' E 004°57'0 0.0
2018-Jan-03 15:00N 43°23' E 004°57'0 0.0
2018-Jan-03 14:30N 43°23' E 004°57'0 0.0
2018-Jan-03 14:00N 43°23' E 004°57'0 0.0
2018-Jan-03 13:30N 43°23' E 004°57'0 0.0
2018-Jan-03 13:00N 43°23' E 004°57'0 0.0
2018-Jan-03 12:30N 43°23' E 004°57'0 0.0
2018-Jan-03 12:00N 43°23' E 004°57'0 0.1
2018-Jan-03 11:30N 43°23' E 004°57'0 0.1
2018-Jan-03 11:00N 43°23' E 004°57'0 0.0
2018-Jan-03 10:30N 43°23' E 004°57'0 0.0
2018-Jan-03 10:00N 43°23' E 004°57'0 0.0
2018-Jan-03 09:30N 43°23' E 004°57'0 0.0
2018-Jan-03 09:00N 43°23' E 004°57'0 0.0
2018-Jan-03 08:30N 43°23' E 004°57'0 0.0
2018-Jan-03 08:00N 43°23' E 004°57'0 0.1
2018-Jan-03 07:30N 43°23' E 004°57'0 0.0
2018-Jan-03 07:00N 43°23' E 004°56'0 0.1
2018-Jan-03 06:30N 43°23' E 004°56'0 0.1
2018-Jan-03 06:00N 43°23' E 004°56'0 0.1
2018-Jan-03 05:30N 43°23' E 004°56'0 0.0
2018-Jan-03 05:00N 43°23' E 004°56'0 0.1
2018-Jan-03 04:30N 43°23' E 004°56'0 0.1
2018-Jan-03 04:00N 43°23' E 004°56'0 0.1
2018-Jan-03 03:30N 43°22' E 004°56'0 0.0
2018-Jan-03 03:00N 43°22' E 004°56'0 0.0
2018-Jan-03 02:30N 43°22' E 004°56'0 0.0
2018-Jan-03 02:00N 43°22' E 004°56'0 0.1
2018-Jan-03 01:27N 43°23' E 004°56'0 0.1
2018-Jan-03 00:57N 43°23' E 004°57'0 0.0
2018-Jan-03 00:30N 43°23' E 004°57'0 0.0
2018-Jan-03 00:00N 43°23' E 004°57'0 0.0
2018-Jan-02 23:30N 43°23' E 004°56'0 0.0
2018-Jan-02 23:00N 43°23' E 004°57'0 0.0
2018-Jan-02 22:30N 43°23' E 004°56'0 0.1
2018-Jan-02 22:00N 43°23' E 004°57'0 0.0
2018-Jan-02 21:30N 43°23' E 004°57'0 0.0
2018-Jan-02 21:00N 43°23' E 004°57'0 0.1
2018-Jan-02 20:30N 43°23' E 004°57'0 0.0
2018-Jan-02 20:00N 43°23' E 004°57'0 0.1
2018-Jan-02 19:30N 43°23' E 004°57'0 0.1
2018-Jan-02 18:54N 43°22' E 004°56'0 0.1
2018-Jan-02 18:30N 43°23' E 004°57'0 0.1
2018-Jan-02 18:00N 43°23' E 004°57'0 0.1
2018-Jan-02 17:30N 43°23' E 004°57'0 0.0
2018-Jan-02 17:00N 43°23' E 004°57'0 0.0
2018-Jan-02 16:27N 43°23' E 004°57'0 0.1
2018-Jan-02 16:00N 43°23' E 004°57'0 0.0
2018-Jan-02 15:30N 43°23' E 004°57'0 0.1
2018-Jan-02 15:00N 43°22' E 004°57'  
Track history (hours):
 
Tides and Currents Weather Stations Pressure Air Temp Water Temp Dewpoint Dewpoint Depression Visibility Wind Speed Wind Dir Waves Ship Positions

Torm Camilla

Last reported at 2018-Jan-12 14:57 UTC. Time now 2018-Jan-19 13:38 UTC.
Position N 36°10' W 005°24'.

Length 182 m; draft 10.8 m.

Type: Tanker. MMSI: 220402000.

Date/timePositionNaut miles runAvg speedWind from/ knotsBaromVisibWave heightAir tempDewpointWater temp
2018-Jan-12 14:57N 36°10' W 005°24'0 0.0
2018-Jan-12 14:24N 36°10' W 005°24'0 0.2
2018-Jan-12 14:00N 36°10' W 005°24'0 0.3
2018-Jan-12 13:30N 36°10' W 005°24'0 0.1
2018-Jan-12 13:00N 36°10' W 005°24'0 0.0
2018-Jan-12 12:30N 36°10' W 005°24'0 0.0
2018-Jan-12 12:00N 36°10' W 005°24'0 0.1
2018-Jan-12 11:30N 36°10' W 005°24'0 0.0
2018-Jan-12 11:00N 36°10' W 005°24'0 0.1
2018-Jan-12 10:30N 36°10' W 005°24'0 0.1
2018-Jan-12 09:55N 36°10' W 005°24'1 2.8
2018-Jan-12 09:30N 36°09' W 005°24'3 5.5
2018-Jan-12 09:01N 36°07' W 005°23'3 6.2
2018-Jan-12 08:31N 36°04' W 005°21'4 7.9
2018-Jan-12 08:01N 36°05' W 005°16'3 6.6
2018-Jan-12 07:30N 36°05' W 005°12'3 5.3
2018-Jan-12 07:00N 36°06' W 005°09'5 9.8
2018-Jan-12 06:30N 36°06' W 005°02'510.2
2018-Jan-12 06:00N 36°07' W 004°56'611.0
2018-Jan-12 05:29N 36°08' W 004°49'611.2
2018-Jan-12 04:56N 36°09' W 004°42'512.0
2018-Jan-12 04:30N 36°09' W 004°35'18111.6
2018-Jan-11 12:55N 37°13' W 001°04'512.2
2018-Jan-11 12:30N 37°16' W 000°59'612.1
2018-Jan-11 12:00N 37°21' W 000°54'611.9
2018-Jan-11 11:31N 37°24' W 000°48'611.9
2018-Jan-11 11:00N 37°28' W 000°42'611.8
2018-Jan-11 10:30N 37°32' W 000°37'611.8
2018-Jan-11 10:00N 37°37' W 000°32'611.7
2018-Jan-11 09:30N 37°42' W 000°28'611.7
2018-Jan-11 08:57N 37°47' W 000°24'511.8
2018-Jan-11 08:30N 37°51' W 000°20'611.5
2018-Jan-11 08:00N 37°56' W 000°16'  
2018-Jan-06 12:57N 40°49' E 001°49'612.9
2018-Jan-06 12:28N 40°53' E 001°54'612.6
2018-Jan-06 12:00N 40°57' E 002°00'612.2
2018-Jan-06 11:30N 41°01' E 002°07'16812.1
2018-Jan-05 21:33N 42°59' E 004°47'111.8
2018-Jan-05 21:30N 42°60' E 004°47'611.8
2018-Jan-05 21:00N 43°04' E 004°52'611.8
2018-Jan-05 20:30N 43°09' E 004°57'510.5
2018-Jan-05 20:00N 43°14' E 005°00'510.3
2018-Jan-05 19:30N 43°19' E 004°59'4 7.1
2018-Jan-05 19:00N 43°22' E 004°58'1 2.4
2018-Jan-05 18:30N 43°23' E 004°56'0 0.0
2018-Jan-05 18:00N 43°23' E 004°56'0 0.1
2018-Jan-05 17:30N 43°23' E 004°56'0 0.0
2018-Jan-05 17:00N 43°23' E 004°56'0 0.0
2018-Jan-05 16:30N 43°23' E 004°56'0 0.0
2018-Jan-05 16:00N 43°23' E 004°56'0 0.0
2018-Jan-05 15:30N 43°23' E 004°56'0 0.1
2018-Jan-05 15:00N 43°23' E 004°56'0 0.1
2018-Jan-05 14:30N 43°23' E 004°56'0 0.0
2018-Jan-05 14:00N 43°23' E 004°56'0 0.0
2018-Jan-05 13:30N 43°23' E 004°56'0 0.0
2018-Jan-05 13:00N 43°23' E 004°56'0 0.0
2018-Jan-05 12:30N 43°23' E 004°56'0 0.0
2018-Jan-05 12:00N 43°23' E 004°56'0 0.0
2018-Jan-05 11:30N 43°23' E 004°56'0 0.0
2018-Jan-05 11:00N 43°23' E 004°56'0 0.1
2018-Jan-05 10:30N 43°23' E 004°56'0 0.0
2018-Jan-05 10:00N 43°23' E 004°56'0 0.0
2018-Jan-05 09:30N 43°23' E 004°56'0 0.0
2018-Jan-05 09:00N 43°23' E 004°56'0 0.1
2018-Jan-05 08:30N 43°23' E 004°56'0 0.0
2018-Jan-05 08:00N 43°23' E 004°56'0 0.1
2018-Jan-05 07:30N 43°23' E 004°56'0 0.0
2018-Jan-05 07:00N 43°23' E 004°56'0 0.0
2018-Jan-05 06:30N 43°23' E 004°56'0 0.1
2018-Jan-05 06:00N 43°23' E 004°56'0 0.1
2018-Jan-05 05:30N 43°23' E 004°57'0 0.1
2018-Jan-05 05:00N 43°23' E 004°57'0 0.0
2018-Jan-05 04:30N 43°23' E 004°57'0 0.0
2018-Jan-05 04:00N 43°23' E 004°57'0 0.0
2018-Jan-05 03:30N 43°23' E 004°57'0 0.1
2018-Jan-05 03:00N 43°23' E 004°57'0 0.1
2018-Jan-05 02:30N 43°23' E 004°57'0 0.2
2018-Jan-05 02:00N 43°23' E 004°57'0 0.0
2018-Jan-05 01:30N 43°23' E 004°57'0 0.0
2018-Jan-05 01:00N 43°23' E 004°57'0 0.0
2018-Jan-05 00:30N 43°23' E 004°57'0 0.1
2018-Jan-05 00:00N 43°23' E 004°57'0 0.0
2018-Jan-04 23:30N 43°23' E 004°57'0 0.0
2018-Jan-04 23:00N 43°23' E 004°57'0 0.0
2018-Jan-04 22:30N 43°23' E 004°57'0 0.0
2018-Jan-04 22:00N 43°23' E 004°57'0 0.0
2018-Jan-04 21:30N 43°23' E 004°57'0 0.1
2018-Jan-04 21:00N 43°23' E 004°57'0 0.1
2018-Jan-04 20:27N 43°23' E 004°57'0 0.1
2018-Jan-04 20:00N 43°23' E 004°57'0 0.0
2018-Jan-04 19:30N 43°23' E 004°57'0 0.0
2018-Jan-04 19:00N 43°23' E 004°57'0 0.1
2018-Jan-04 18:30N 43°23' E 004°57'0 0.0
2018-Jan-04 18:00N 43°23' E 004°57'0 0.0
2018-Jan-04 17:30N 43°23' E 004°57'0 0.1
2018-Jan-04 17:00N 43°23' E 004°57'0 0.0
2018-Jan-04 16:30N 43°23' E 004°57'0 0.0
2018-Jan-04 16:00N 43°23' E 004°57'0 0.0
2018-Jan-04 15:30N 43°23' E 004°57'0 0.0
2018-Jan-04 15:00N 43°23' E 004°57'0 0.0
2018-Jan-04 14:30N 43°23' E 004°57'0 0.1
2018-Jan-04 14:00N 43°23' E 004°57'0 0.0
2018-Jan-04 13:30N 43°23' E 004°57'0 0.0
2018-Jan-04 13:00N 43°23' E 004°57'0 0.0
2018-Jan-04 12:30N 43°23' E 004°57'0 0.0
2018-Jan-04 12:00N 43°23' E 004°57'0 0.1
2018-Jan-04 11:30N 43°23' E 004°57'0 0.0
2018-Jan-04 11:00N 43°23' E 004°57'0 0.0
2018-Jan-04 10:30N 43°23' E 004°57'0 0.0
2018-Jan-04 09:57N 43°23' E 004°57'0 0.1
2018-Jan-04 09:30N 43°23' E 004°57'0 0.0
2018-Jan-04 09:00N 43°23' E 004°57'0 0.0
2018-Jan-04 08:30N 43°23' E 004°57'0 0.0
2018-Jan-04 08:00N 43°23' E 004°57'0 0.0
2018-Jan-04 07:30N 43°23' E 004°57'0 0.0
2018-Jan-04 07:00N 43°23' E 004°57'0 0.0
2018-Jan-04 06:30N 43°23' E 004°57'0 0.0
2018-Jan-04 06:00N 43°23' E 004°57'0 0.0
2018-Jan-04 05:30N 43°23' E 004°57'0 0.0
2018-Jan-04 05:00N 43°23' E 004°57'0 0.0
2018-Jan-04 04:30N 43°23' E 004°57'0 0.1
2018-Jan-04 04:00N 43°23' E 004°57'0 0.1
2018-Jan-04 03:30N 43°23' E 004°57'0 0.1
2018-Jan-04 03:00N 43°23' E 004°57'0 0.0
2018-Jan-04 02:30N 43°23' E 004°57'0 0.1
2018-Jan-04 02:00N 43°23' E 004°57'0 0.1
2018-Jan-04 01:30N 43°23' E 004°57'0 0.0
2018-Jan-04 01:00N 43°23' E 004°57'0 0.0
2018-Jan-04 00:30N 43°23' E 004°57'0 0.0
2018-Jan-04 00:00N 43°23' E 004°57'0 0.0
2018-Jan-03 23:30N 43°23' E 004°57'0 0.0
2018-Jan-03 23:00N 43°23' E 004°57'0 0.0
2018-Jan-03 22:30N 43°23' E 004°57'0 0.1
2018-Jan-03 22:00N 43°23' E 004°57'0 0.0
2018-Jan-03 21:30N 43°23' E 004°57'0 0.1
2018-Jan-03 21:00N 43°23' E 004°57'0 0.1
2018-Jan-03 20:30N 43°22' E 004°57'0 0.1
2018-Jan-03 20:00N 43°23' E 004°57'0 0.0
2018-Jan-03 19:30N 43°22' E 004°57'0 0.0
2018-Jan-03 19:00N 43°22' E 004°57'0 0.0
2018-Jan-03 18:30N 43°23' E 004°57'0 0.0
2018-Jan-03 18:00N 43°23' E 004°57'0 0.0
2018-Jan-03 17:30N 43°23' E 004°57'0 0.0
2018-Jan-03 17:00N 43°23' E 004°57'0 0.0
2018-Jan-03 16:30N 43°23' E 004°57'0 0.0
2018-Jan-03 16:00N 43°23' E 004°57'0 0.1
2018-Jan-03 15:30N 43°23' E 004°57'0 0.0
2018-Jan-03 15:00N 43°23' E 004°57'0 0.0
2018-Jan-03 14:30N 43°23' E 004°57'0 0.0
2018-Jan-03 14:00N 43°23' E 004°57'0 0.0
2018-Jan-03 13:30N 43°23' E 004°57'0 0.0
2018-Jan-03 13:00N 43°23' E 004°57'0 0.0
2018-Jan-03 12:30N 43°23' E 004°57'0 0.0
2018-Jan-03 12:00N 43°23' E 004°57'0 0.1
2018-Jan-03 11:30N 43°23' E 004°57'0 0.1
2018-Jan-03 11:00N 43°23' E 004°57'0 0.0
2018-Jan-03 10:30N 43°23' E 004°57'0 0.0
2018-Jan-03 10:00N 43°23' E 004°57'0 0.0
2018-Jan-03 09:30N 43°23' E 004°57'0 0.0
2018-Jan-03 09:00N 43°23' E 004°57'0 0.0
2018-Jan-03 08:30N 43°23' E 004°57'0 0.0
2018-Jan-03 08:00N 43°23' E 004°57'0 0.1
2018-Jan-03 07:30N 43°23' E 004°57'0 0.0
2018-Jan-03 07:00N 43°23' E 004°56'0 0.1
2018-Jan-03 06:30N 43°23' E 004°56'0 0.1
2018-Jan-03 06:00N 43°23' E 004°56'0 0.1
2018-Jan-03 05:30N 43°23' E 004°56'0 0.0
2018-Jan-03 05:00N 43°23' E 004°56'0 0.1
2018-Jan-03 04:30N 43°23' E 004°56'0 0.1
2018-Jan-03 04:00N 43°23' E 004°56'0 0.1
2018-Jan-03 03:30N 43°22' E 004°56'0 0.0
2018-Jan-03 03:00N 43°22' E 004°56'0 0.0
2018-Jan-03 02:30N 43°22' E 004°56'0 0.0
2018-Jan-03 02:00N 43°22' E 004°56'0 0.1
2018-Jan-03 01:27N 43°23' E 004°56'0 0.1
2018-Jan-03 00:57N 43°23' E 004°57'0 0.0
2018-Jan-03 00:30N 43°23' E 004°57'0 0.0
2018-Jan-03 00:00N 43°23' E 004°57'0 0.0
2018-Jan-02 23:30N 43°23' E 004°56'0 0.0
2018-Jan-02 23:00N 43°23' E 004°57'0 0.0
2018-Jan-02 22:30N 43°23' E 004°56'0 0.1
2018-Jan-02 22:00N 43°23' E 004°57'0 0.0
2018-Jan-02 21:30N 43°23' E 004°57'0 0.0
2018-Jan-02 21:00N 43°23' E 004°57'0 0.1
2018-Jan-02 20:30N 43°23' E 004°57'0 0.0
2018-Jan-02 20:00N 43°23' E 004°57'0 0.1
2018-Jan-02 19:30N 43°23' E 004°57'0 0.1
2018-Jan-02 18:54N 43°22' E 004°56'0 0.1
2018-Jan-02 18:30N 43°23' E 004°57'0 0.1
2018-Jan-02 18:00N 43°23' E 004°57'0 0.1
2018-Jan-02 17:30N 43°23' E 004°57'0 0.0
2018-Jan-02 17:00N 43°23' E 004°57'0 0.0
2018-Jan-02 16:27N 43°23' E 004°57'0 0.1
2018-Jan-02 16:00N 43°23' E 004°57'0 0.0
2018-Jan-02 15:30N 43°23' E 004°57'0 0.1
2018-Jan-02 15:00N 43°22' E 004°57'  

Dump ship's entire track history